createdAt,value
2023-07-17T00:00:12.308Z,19.80
2023-07-17T00:02:40.479Z,19.80
2023-07-17T00:05:09.036Z,19.80
2023-07-17T00:07:37.105Z,19.80
2023-07-17T00:10:05.631Z,19.80
2023-07-17T00:12:33.729Z,19.70
2023-07-17T00:15:01.758Z,19.70
2023-07-17T00:17:31.239Z,19.70
2023-07-17T00:19:59.920Z,19.70
2023-07-17T00:22:28.288Z,19.80
2023-07-17T00:24:56.361Z,19.80
2023-07-17T00:27:24.451Z,19.80
2023-07-17T00:29:52.596Z,19.80
2023-07-17T00:32:21.299Z,19.80
2023-07-17T00:34:50.749Z,19.80
2023-07-17T00:37:18.762Z,19.80
2023-07-17T00:39:46.754Z,19.80
2023-07-17T00:42:14.832Z,19.80
2023-07-17T00:44:42.891Z,19.80
2023-07-17T00:47:11.791Z,19.80
2023-07-17T00:49:42.159Z,19.80
2023-07-17T00:52:12.932Z,19.80
2023-07-17T00:54:43.254Z,19.90
2023-07-17T00:57:13.031Z,19.80
2023-07-17T00:59:42.978Z,19.80
2023-07-17T01:02:12.050Z,19.80
2023-07-17T01:04:45.071Z,19.80
2023-07-17T01:07:14.526Z,19.80
2023-07-17T01:09:42.932Z,19.80
2023-07-17T01:12:11.770Z,19.80
2023-07-17T01:14:40.004Z,19.80
2023-07-17T01:17:08.421Z,19.80
2023-07-17T01:19:36.540Z,19.80
2023-07-17T01:22:12.726Z,19.80
2023-07-17T01:24:42.169Z,19.80
2023-07-17T01:27:10.944Z,19.80
2023-07-17T01:29:38.960Z,19.80
2023-07-17T01:32:07.712Z,19.70
2023-07-17T01:34:36.833Z,19.70
2023-07-17T01:37:05.187Z,19.60
2023-07-17T01:39:33.211Z,19.60
2023-07-17T01:42:02.602Z,19.50
2023-07-17T01:44:31.486Z,19.40
2023-07-17T01:47:00.535Z,19.40
2023-07-17T01:49:28.590Z,19.40
2023-07-17T01:51:56.568Z,19.40
2023-07-17T01:54:24.625Z,19.30
2023-07-17T01:56:52.787Z,19.40
2023-07-17T01:59:22.145Z,19.30
2023-07-17T02:01:50.186Z,19.30
2023-07-17T02:04:18.292Z,19.30
2023-07-17T02:06:46.339Z,19.30
2023-07-17T02:09:14.455Z,19.30
2023-07-17T02:11:42.486Z,19.20
2023-07-17T02:14:10.555Z,19.20
2023-07-17T02:16:40.090Z,19.20
2023-07-17T02:19:08.257Z,19.10
2023-07-17T02:21:36.271Z,19.10
2023-07-17T02:24:05.348Z,19.10
2023-07-17T02:26:33.409Z,19.10
2023-07-17T02:29:01.400Z,19.10
2023-07-17T02:31:29.522Z,19.00
2023-07-17T02:33:58.881Z,19.00
2023-07-17T02:36:26.898Z,19.00
2023-07-17T02:38:54.913Z,19.00
2023-07-17T02:41:22.934Z,19.00
2023-07-17T02:43:52.450Z,19.00
2023-07-17T02:46:20.712Z,19.10
2023-07-17T02:48:48.789Z,19.10
2023-07-17T02:51:18.377Z,19.10
2023-07-17T02:53:46.679Z,19.10
2023-07-17T02:56:14.813Z,19.10
2023-07-17T02:58:43.712Z,19.10
2023-07-17T03:01:12.060Z,19.10
2023-07-17T03:03:40.101Z,19.10
2023-07-17T03:06:08.406Z,19.10
2023-07-17T03:08:37.834Z,19.10
2023-07-17T03:11:06.346Z,19.10
2023-07-17T03:13:34.408Z,19.20
2023-07-17T03:16:02.590Z,19.20
2023-07-17T03:18:30.794Z,19.20
2023-07-17T03:20:58.979Z,19.20
2023-07-17T03:23:28.245Z,19.30
2023-07-17T03:25:59.474Z,19.20
2023-07-17T03:28:27.499Z,19.20
2023-07-17T03:30:57.254Z,19.10
2023-07-17T03:33:25.506Z,19.10
2023-07-17T03:35:53.620Z,19.10
2023-07-17T03:38:21.603Z,19.00
2023-07-17T03:40:49.642Z,19.00
2023-07-17T03:43:19.107Z,19.00
2023-07-17T03:45:47.709Z,19.00
2023-07-17T03:48:15.668Z,18.90
2023-07-17T03:50:43.695Z,18.90
2023-07-17T03:53:11.726Z,18.90
2023-07-17T03:55:41.181Z,18.80
2023-07-17T03:58:09.234Z,18.80
2023-07-17T04:00:38.638Z,18.80
2023-07-17T04:03:06.856Z,18.80
2023-07-17T04:05:34.971Z,18.80
2023-07-17T04:08:03.253Z,18.70
2023-07-17T04:10:31.511Z,18.70
2023-07-17T04:12:59.595Z,18.60
2023-07-17T04:15:28.222Z,18.70
2023-07-17T04:17:57.882Z,18.60
2023-07-17T04:20:25.948Z,18.60
2023-07-17T04:22:53.960Z,18.60
2023-07-17T04:25:22.093Z,18.50
2023-07-17T04:27:50.142Z,18.50
2023-07-17T04:30:18.367Z,18.60
2023-07-17T04:32:46.436Z,18.60
2023-07-17T04:35:16.026Z,18.70
2023-07-17T04:37:44.002Z,18.80
2023-07-17T04:40:12.550Z,18.90
2023-07-17T04:42:40.773Z,19.00
2023-07-17T04:45:09.851Z,19.00
2023-07-17T04:47:38.007Z,19.00
2023-07-17T04:50:07.128Z,19.00
2023-07-17T04:52:36.529Z,19.00
2023-07-17T04:55:04.880Z,19.00
2023-07-17T04:57:32.866Z,19.00
2023-07-17T05:00:03.647Z,19.00
2023-07-17T05:02:31.822Z,19.00
2023-07-17T05:04:59.816Z,19.00
2023-07-17T05:07:29.548Z,19.00
2023-07-17T05:09:59.111Z,19.00
2023-07-17T05:12:27.166Z,19.10
2023-07-17T05:14:55.200Z,19.30
2023-07-17T05:17:23.275Z,19.50
2023-07-17T05:19:51.477Z,19.50
2023-07-17T05:22:19.453Z,19.50
2023-07-17T05:24:47.652Z,19.50
2023-07-17T05:27:17.183Z,19.50
2023-07-17T05:29:45.192Z,19.50
2023-07-17T05:32:13.345Z,19.40
2023-07-17T05:34:41.363Z,19.40
2023-07-17T05:37:09.402Z,19.30
2023-07-17T05:39:37.443Z,19.20
2023-07-17T05:42:06.076Z,19.10
2023-07-17T05:44:35.587Z,19.10
2023-07-17T05:47:03.642Z,19.00
2023-07-17T05:49:31.683Z,19.00
2023-07-17T05:51:59.838Z,19.00
2023-07-17T05:54:27.902Z,19.00
2023-07-17T05:56:55.931Z,19.00
2023-07-17T05:59:23.970Z,19.10
2023-07-17T06:01:53.350Z,19.10
2023-07-17T06:04:21.426Z,19.10
2023-07-17T06:06:49.568Z,19.10
2023-07-17T06:09:17.593Z,19.10
2023-07-17T06:11:45.607Z,19.10
2023-07-17T06:14:14.103Z,19.10
2023-07-17T06:16:42.158Z,19.10
2023-07-17T06:19:11.602Z,19.10
2023-07-17T06:21:39.595Z,19.00
2023-07-17T06:24:08.915Z,19.00
2023-07-17T06:26:37.867Z,19.00
2023-07-17T06:29:06.670Z,19.00
2023-07-17T06:31:34.852Z,19.10
2023-07-17T06:34:03.675Z,19.10
2023-07-17T06:36:33.064Z,19.10
2023-07-17T06:39:01.111Z,19.10
2023-07-17T06:41:29.166Z,19.10
2023-07-17T06:43:57.272Z,19.10
2023-07-17T06:46:25.349Z,19.10
2023-07-17T06:48:53.380Z,19.00
2023-07-17T06:51:21.446Z,18.90
2023-07-17T06:53:51.568Z,18.80
2023-07-17T06:56:19.713Z,18.80
2023-07-17T06:58:47.806Z,18.70
2023-07-17T07:01:16.162Z,18.60
2023-07-17T07:03:45.152Z,18.70
2023-07-17T07:06:13.364Z,18.90
2023-07-17T07:08:43.592Z,19.00
2023-07-17T07:11:13.070Z,18.90
2023-07-17T07:13:44.964Z,19.00
2023-07-17T07:16:16.211Z,19.10
2023-07-17T07:18:44.529Z,19.00
2023-07-17T07:21:12.543Z,19.00
2023-07-17T07:23:40.619Z,19.00
2023-07-17T07:26:09.117Z,19.20
2023-07-17T07:28:38.579Z,19.20
2023-07-17T07:32:57.560Z,19.50
2023-07-17T07:35:26.000Z,19.50
2023-07-17T07:37:54.129Z,19.40
2023-07-17T07:40:22.205Z,19.50
2023-07-17T07:42:50.339Z,19.60
2023-07-17T07:45:19.280Z,19.70
2023-07-17T07:47:47.296Z,19.90
2023-07-17T07:50:16.907Z,20.00
2023-07-17T07:52:45.285Z,20.10
2023-07-17T07:55:13.610Z,20.30
2023-07-17T07:57:41.849Z,21.10
2023-07-17T08:00:11.219Z,21.90
2023-07-17T08:02:39.519Z,22.30
2023-07-17T08:05:08.195Z,23.20
2023-07-17T08:07:37.870Z,23.00
2023-07-17T08:10:08.214Z,23.90
2023-07-17T08:12:37.153Z,24.80
2023-07-17T08:15:06.200Z,26.00
2023-07-17T08:17:34.272Z,26.30
2023-07-17T08:20:02.368Z,26.80
2023-07-17T08:22:30.507Z,27.60
2023-07-17T08:25:00.177Z,28.00
2023-07-17T08:27:28.625Z,27.90
2023-07-17T08:29:56.687Z,27.90
2023-07-17T08:32:24.676Z,28.10
2023-07-17T08:34:52.748Z,27.90
2023-07-17T08:37:20.821Z,28.20
2023-07-17T08:39:49.833Z,28.20
2023-07-17T08:42:19.267Z,28.70
2023-07-17T08:44:47.965Z,28.70
2023-07-17T08:47:16.676Z,28.90
2023-07-17T08:49:46.704Z,29.30
2023-07-17T08:52:16.635Z,29.70
2023-07-17T08:54:44.703Z,29.70
2023-07-17T08:57:13.609Z,29.90
2023-07-17T08:59:43.361Z,30.20
2023-07-17T09:02:11.609Z,29.50
2023-07-17T09:04:39.658Z,29.50
2023-07-17T09:07:08.061Z,28.50
2023-07-17T09:09:36.157Z,28.00
2023-07-17T09:12:09.206Z,27.50
2023-07-17T09:14:38.160Z,26.90
2023-07-17T09:17:09.540Z,26.80
2023-07-17T09:19:39.897Z,27.40
2023-07-17T09:22:08.802Z,28.30
2023-07-17T09:24:38.529Z,28.50
2023-07-17T09:27:08.263Z,29.30
2023-07-17T09:29:42.181Z,29.60
2023-07-17T09:32:20.159Z,30.20
2023-07-17T09:34:53.290Z,30.60
2023-07-17T09:37:21.337Z,30.50
2023-07-17T09:39:53.958Z,30.60
2023-07-17T09:42:25.410Z,30.40
2023-07-17T09:44:54.854Z,30.40
2023-07-17T09:47:24.414Z,30.70
2023-07-17T09:49:53.295Z,31.00
2023-07-17T09:52:21.534Z,30.90
2023-07-17T09:54:52.167Z,30.80
2023-07-17T09:57:28.867Z,31.10
2023-07-17T10:00:04.720Z,31.60
2023-07-17T10:02:40.678Z,31.50
2023-07-17T10:05:09.567Z,30.60
2023-07-17T10:07:40.090Z,31.10
2023-07-17T10:10:10.332Z,31.40
2023-07-17T10:12:40.651Z,31.80
2023-07-17T10:15:11.345Z,31.70
2023-07-17T10:17:40.748Z,31.80
2023-07-17T10:20:11.228Z,32.20
2023-07-17T10:22:44.991Z,32.40
2023-07-17T10:25:25.256Z,32.10
2023-07-17T10:27:57.727Z,32.70
2023-07-17T10:30:27.636Z,31.70
2023-07-17T10:33:12.753Z,31.50
2023-07-17T10:35:51.639Z,31.80
2023-07-17T10:38:24.407Z,32.20
2023-07-17T10:41:03.537Z,31.90
2023-07-17T10:43:31.689Z,31.70
2023-07-17T10:46:01.117Z,32.00
2023-07-17T10:48:35.953Z,32.20
2023-07-17T10:51:05.004Z,32.60
2023-07-17T10:53:33.127Z,33.20
2023-07-17T10:56:01.191Z,33.50
2023-07-17T10:58:29.304Z,33.20
2023-07-17T11:00:57.373Z,33.30
2023-07-17T11:03:27.789Z,32.60
2023-07-17T11:05:58.256Z,32.40
2023-07-17T11:08:28.029Z,32.50
2023-07-17T11:10:56.205Z,32.30
2023-07-17T11:13:24.320Z,32.20
2023-07-17T11:15:52.377Z,31.70
2023-07-17T11:18:20.927Z,31.40
2023-07-17T11:20:50.818Z,30.70
2023-07-17T11:23:20.200Z,30.30
2023-07-17T11:25:48.430Z,30.40
2023-07-17T11:28:16.521Z,30.30
2023-07-17T11:30:44.496Z,30.10
2023-07-17T11:33:12.563Z,30.10
2023-07-17T11:35:41.699Z,30.30
2023-07-17T11:38:10.293Z,29.60
2023-07-17T11:40:56.984Z,29.60
2023-07-17T11:43:27.532Z,29.40
2023-07-17T11:46:03.753Z,29.00
2023-07-17T11:48:33.698Z,28.60
2023-07-17T11:51:05.378Z,28.50
2023-07-17T11:53:34.160Z,29.00
2023-07-17T11:56:04.642Z,28.20
2023-07-17T11:58:37.806Z,28.30
2023-07-17T12:01:08.625Z,28.60
2023-07-17T12:03:37.376Z,28.90
2023-07-17T12:06:05.448Z,29.10
2023-07-17T12:08:33.550Z,28.20
2023-07-17T12:11:03.030Z,28.60
2023-07-17T12:13:31.077Z,28.50
2023-07-17T12:15:59.329Z,29.10
2023-07-17T12:18:27.464Z,29.00
2023-07-17T12:20:55.625Z,29.10
2023-07-17T12:23:24.415Z,29.00
2023-07-17T12:25:52.555Z,28.70
2023-07-17T12:28:22.205Z,28.90
2023-07-17T12:30:50.497Z,29.40
2023-07-17T12:33:18.653Z,29.60
2023-07-17T12:35:47.410Z,29.10
2023-07-17T12:38:15.653Z,29.20
2023-07-17T12:40:43.801Z,29.20
2023-07-17T12:43:11.845Z,29.40
2023-07-17T12:45:41.954Z,29.60
2023-07-17T12:48:11.479Z,29.80
2023-07-17T12:50:39.938Z,29.40
2023-07-17T12:53:08.184Z,29.50
2023-07-17T12:55:36.250Z,29.40
2023-07-17T12:58:04.663Z,29.60
2023-07-17T13:00:33.401Z,29.70
2023-07-17T13:03:02.932Z,29.90
2023-07-17T13:05:31.149Z,30.10
2023-07-17T13:07:59.290Z,29.90
2023-07-17T13:10:27.436Z,29.80
2023-07-17T13:12:55.574Z,29.90
2023-07-17T13:15:24.650Z,30.20
2023-07-17T13:17:52.742Z,29.70
2023-07-17T13:20:22.261Z,29.90
2023-07-17T13:22:50.368Z,29.70
2023-07-17T13:25:18.474Z,30.10
2023-07-17T13:27:47.601Z,30.40
2023-07-17T13:30:15.824Z,30.50
2023-07-17T13:32:44.101Z,30.40
2023-07-17T13:35:12.105Z,30.40
2023-07-17T13:37:41.773Z,30.20
2023-07-17T13:40:10.558Z,30.10
2023-07-17T13:42:38.610Z,30.30
2023-07-17T13:45:08.716Z,30.20
2023-07-17T13:47:37.005Z,29.80
2023-07-17T13:50:06.541Z,29.90
2023-07-17T13:52:35.088Z,30.20
2023-07-17T13:55:04.973Z,30.20
2023-07-17T13:57:33.128Z,30.20
2023-07-17T14:00:01.326Z,30.30
2023-07-17T14:02:29.465Z,30.30
2023-07-17T14:04:57.749Z,30.30
2023-07-17T14:07:25.722Z,29.80
2023-07-17T14:09:53.800Z,29.30
2023-07-17T14:12:23.333Z,29.20
2023-07-17T14:14:52.116Z,28.70
2023-07-17T14:17:20.255Z,28.30
2023-07-17T14:19:48.645Z,27.70
2023-07-17T14:22:16.702Z,27.50
2023-07-17T14:24:44.899Z,27.20
2023-07-17T14:27:13.088Z,26.90
2023-07-17T14:29:43.572Z,26.50
2023-07-17T14:32:11.802Z,26.60
2023-07-17T14:34:41.635Z,26.60
2023-07-17T14:37:10.068Z,26.60
2023-07-17T14:39:38.266Z,26.60
2023-07-17T14:42:07.095Z,26.60
2023-07-17T14:44:35.307Z,26.50
2023-07-17T14:47:06.138Z,26.70
2023-07-17T14:49:36.226Z,26.70
2023-07-17T14:52:04.723Z,26.70
2023-07-17T14:54:32.772Z,27.00
2023-07-17T14:57:00.754Z,27.20
2023-07-17T14:59:28.895Z,27.40
2023-07-17T15:01:56.924Z,27.60
2023-07-17T15:04:26.429Z,27.70
2023-07-17T15:06:54.729Z,27.70
2023-07-17T15:09:22.936Z,27.90
2023-07-17T15:11:51.112Z,27.80
2023-07-17T15:14:26.725Z,28.00
2023-07-17T15:16:56.102Z,28.20
2023-07-17T15:19:24.417Z,28.30
2023-07-17T15:21:53.917Z,28.40
2023-07-17T15:24:22.261Z,28.40
2023-07-17T15:26:50.514Z,28.90
2023-07-17T15:29:18.711Z,29.00
2023-07-17T15:31:46.842Z,28.90
2023-07-17T15:34:15.451Z,29.00
2023-07-17T15:36:43.452Z,28.60
2023-07-17T15:39:12.955Z,28.30
2023-07-17T15:41:41.003Z,28.00
2023-07-17T15:44:09.140Z,27.70
2023-07-17T15:46:37.263Z,27.50
2023-07-17T15:49:05.416Z,27.70
2023-07-17T15:51:33.558Z,27.70
2023-07-17T15:54:01.882Z,27.90
2023-07-17T15:56:31.445Z,28.00
2023-07-17T15:59:00.194Z,27.80
2023-07-17T16:01:28.293Z,27.50
2023-07-17T16:03:56.372Z,27.40
2023-07-17T16:06:24.466Z,27.20
2023-07-17T16:08:52.641Z,26.90
2023-07-17T16:11:20.676Z,26.70
2023-07-17T16:13:50.169Z,26.50
2023-07-17T16:16:19.181Z,26.30
2023-07-17T16:18:47.509Z,26.40
2023-07-17T16:21:15.683Z,26.40
2023-07-17T16:23:44.637Z,26.50
2023-07-17T16:26:12.730Z,26.60
2023-07-17T16:28:40.903Z,26.80
2023-07-17T16:31:10.521Z,26.90
2023-07-17T16:33:38.914Z,27.00
2023-07-17T16:36:07.514Z,27.00
2023-07-17T16:38:35.612Z,27.00
2023-07-17T16:41:05.234Z,27.00
2023-07-17T16:43:33.461Z,26.90
2023-07-17T16:46:01.636Z,26.90
2023-07-17T16:48:31.142Z,26.90
2023-07-17T16:50:59.237Z,26.90
2023-07-17T16:53:27.292Z,26.70
2023-07-17T16:55:55.321Z,26.70
2023-07-17T16:58:23.449Z,26.60
2023-07-17T17:00:51.808Z,26.60
2023-07-17T17:03:20.663Z,26.50
2023-07-17T17:05:50.390Z,26.50
2023-07-17T17:08:18.508Z,26.40
2023-07-17T17:10:46.950Z,26.40
2023-07-17T17:13:15.136Z,26.40
2023-07-17T17:15:45.916Z,26.40
2023-07-17T17:18:14.599Z,26.30
2023-07-17T17:20:42.773Z,26.30
2023-07-17T17:23:12.700Z,26.20
2023-07-17T17:25:41.799Z,26.20
2023-07-17T17:28:10.246Z,26.10
2023-07-17T17:30:38.391Z,26.00
2023-07-17T17:33:06.508Z,26.00
2023-07-17T17:35:34.598Z,26.00
2023-07-17T17:38:02.790Z,25.90
2023-07-17T17:40:32.483Z,25.80
2023-07-17T17:43:00.522Z,25.80
2023-07-17T17:45:29.499Z,25.70
2023-07-17T17:47:57.904Z,25.50
2023-07-17T17:50:26.010Z,25.40
2023-07-17T17:52:54.160Z,25.30
2023-07-17T17:55:22.344Z,25.20
2023-07-17T17:57:51.823Z,25.20
2023-07-17T18:00:20.974Z,25.10
2023-07-17T18:02:50.108Z,25.00
2023-07-17T18:05:18.470Z,25.00
2023-07-17T18:07:46.969Z,25.00
2023-07-17T18:10:19.245Z,25.10
2023-07-17T18:12:47.407Z,25.10
2023-07-17T18:15:16.996Z,25.10
2023-07-17T18:17:45.570Z,25.10
2023-07-17T18:20:13.826Z,25.00
2023-07-17T18:22:42.110Z,24.90
2023-07-17T18:25:13.273Z,24.90
2023-07-17T18:27:41.722Z,24.70
2023-07-17T18:30:10.437Z,24.70
2023-07-17T18:32:39.953Z,24.60
2023-07-17T18:35:09.137Z,24.60
2023-07-17T18:37:37.639Z,24.40
2023-07-17T18:40:10.642Z,24.40
2023-07-17T18:42:38.976Z,24.30
2023-07-17T18:45:08.564Z,24.20
2023-07-17T18:47:36.674Z,24.10
2023-07-17T18:50:07.070Z,24.00
2023-07-17T18:52:36.544Z,23.90
2023-07-17T18:55:05.230Z,23.80
2023-07-17T18:57:33.300Z,23.70
2023-07-17T19:00:05.497Z,23.60
2023-07-17T19:02:33.757Z,23.60
2023-07-17T19:05:02.082Z,23.60
2023-07-17T19:07:31.607Z,23.40
2023-07-17T19:09:59.982Z,23.40
2023-07-17T19:12:28.243Z,23.40
2023-07-17T19:14:56.309Z,23.30
2023-07-17T19:17:25.284Z,23.20
2023-07-17T19:19:53.554Z,23.10
2023-07-17T19:22:21.609Z,23.00
2023-07-17T19:24:51.182Z,22.90
2023-07-17T19:27:19.306Z,22.90
2023-07-17T19:29:47.407Z,22.90
2023-07-17T19:32:18.003Z,22.80
2023-07-17T19:34:47.402Z,22.80
2023-07-17T19:37:15.984Z,22.70
2023-07-17T19:39:44.302Z,22.60
2023-07-17T19:42:15.817Z,22.70
2023-07-17T19:44:43.960Z,22.60
2023-07-17T19:47:12.074Z,22.50
2023-07-17T19:49:40.283Z,22.50
2023-07-17T19:52:09.101Z,22.50
2023-07-17T19:54:37.179Z,22.40
2023-07-17T19:57:05.364Z,22.40
2023-07-17T19:59:34.802Z,22.30
2023-07-17T20:02:03.020Z,22.30
2023-07-17T20:04:31.515Z,22.30
2023-07-17T20:06:59.842Z,22.30
2023-07-17T20:09:33.828Z,22.40
2023-07-17T20:12:03.288Z,22.30
2023-07-17T20:14:31.740Z,22.30
2023-07-17T20:17:02.317Z,22.30
2023-07-17T20:19:30.449Z,22.20
2023-07-17T20:21:59.292Z,22.20
2023-07-17T20:24:27.466Z,22.10
2023-07-17T20:26:55.512Z,22.10
2023-07-17T20:29:25.128Z,22.10
2023-07-17T20:31:53.432Z,22.00
2023-07-17T20:34:23.162Z,22.00
2023-07-17T20:36:51.258Z,21.90
2023-07-17T20:39:19.519Z,21.90
2023-07-17T20:41:47.590Z,21.80
2023-07-17T20:44:15.908Z,21.70
2023-07-17T20:46:44.348Z,21.70
2023-07-17T20:49:12.751Z,21.60
2023-07-17T20:51:42.415Z,21.50
2023-07-17T20:54:12.015Z,21.50
2023-07-17T20:56:40.211Z,21.40
2023-07-17T20:59:08.529Z,21.30
2023-07-17T21:01:36.651Z,21.30
2023-07-17T21:04:05.453Z,21.20
2023-07-17T21:06:33.638Z,21.20
2023-07-17T21:09:03.257Z,21.10
2023-07-17T21:11:31.425Z,21.00
2023-07-17T21:14:00.344Z,21.00
2023-07-17T21:16:28.591Z,20.90
2023-07-17T21:18:56.718Z,20.80
2023-07-17T21:21:24.904Z,20.80
2023-07-17T21:23:53.131Z,20.70
2023-07-17T21:26:22.617Z,20.70
2023-07-17T21:28:58.090Z,20.60
2023-07-17T21:31:26.502Z,20.60
2023-07-17T21:33:54.596Z,20.60
2023-07-17T21:36:22.628Z,20.60
2023-07-17T21:38:50.678Z,20.60
2023-07-17T21:41:18.965Z,20.60
2023-07-17T21:43:48.779Z,20.50
2023-07-17T21:46:17.208Z,20.50
2023-07-17T21:48:45.321Z,20.50
2023-07-17T21:51:16.818Z,20.40
2023-07-17T21:53:45.389Z,20.30
2023-07-17T21:56:13.502Z,20.30
2023-07-17T21:58:41.664Z,20.30
2023-07-17T22:01:13.561Z,20.30
2023-07-17T22:03:42.175Z,20.20
2023-07-17T22:06:10.363Z,20.20
2023-07-17T22:08:38.415Z,20.20
2023-07-17T22:11:06.424Z,20.10
2023-07-17T22:13:36.143Z,20.00
2023-07-17T22:16:04.807Z,20.00
2023-07-17T22:18:36.865Z,20.00
2023-07-17T22:21:05.098Z,19.90
2023-07-17T22:23:33.191Z,19.90
2023-07-17T22:26:01.196Z,19.80
2023-07-17T22:28:29.295Z,19.80
2023-07-17T22:30:57.348Z,19.70
2023-07-17T22:33:25.802Z,19.70
2023-07-17T22:35:56.527Z,19.70
2023-07-17T22:38:24.634Z,19.60
2023-07-17T22:40:52.636Z,19.60
2023-07-17T22:43:20.656Z,19.50
2023-07-17T22:45:48.979Z,19.50
2023-07-17T22:48:17.791Z,19.50
2023-07-17T22:50:47.063Z,19.40
2023-07-17T22:53:16.466Z,19.40
2023-07-17T22:55:44.983Z,19.30
2023-07-17T22:58:13.558Z,19.30
2023-07-17T23:00:41.882Z,19.20
2023-07-17T23:03:10.108Z,19.20
2023-07-17T23:05:38.433Z,19.10
2023-07-17T23:08:08.450Z,19.10
2023-07-17T23:10:38.731Z,19.10
2023-07-17T23:13:06.781Z,19.10
2023-07-17T23:15:35.585Z,19.00
2023-07-17T23:18:03.724Z,19.00
2023-07-17T23:20:31.823Z,19.00
2023-07-17T23:23:00.041Z,18.90
2023-07-17T23:25:28.108Z,18.90
2023-07-17T23:27:57.498Z,18.90
2023-07-17T23:30:26.627Z,18.90
2023-07-17T23:32:54.814Z,18.90
2023-07-17T23:35:23.040Z,18.90
2023-07-17T23:37:51.010Z,18.90
2023-07-17T23:40:19.277Z,19.00
2023-07-17T23:42:59.478Z,19.00
2023-07-17T23:45:28.483Z,19.00
2023-07-17T23:47:56.924Z,19.10
2023-07-17T23:50:25.719Z,19.10
2023-07-17T23:52:54.197Z,19.10
2023-07-17T23:55:22.445Z,19.20
2023-07-17T23:57:51.100Z,19.20
